METAR 2014/08/01 :

EPMO 22:00: METAR EPMO 012200Z 05006KT CAVOK 19/18 Q1014 = EPMO 21:30: METAR EPMO 012130Z 04007KT 9999 -SHRA SCT035CB 19/18 Q1014 RETS =

TAF 2014/08/01 :

EPMO 20:30: TAF EPMO 012030Z 0121/0206 04005KT 9999 SCT030 TEMPO 0121/0122 TSRA BKN020CB TEMPO 0201/0204 4000 BR BKN005= EPMO 19:33: TAF AMD EPMO 011933Z 0119/0203 03007KT 9999 BKN030 TEMPO 0120/0121 4000 TSRA BKN020CB TEMPO 0123/0203 BKN008=

Pogoda ogólna dla Polski